sensor_id;sensor_type;location;lat;lon;timestamp;temperature;humidity
75705;DHT22;70013;44.726;37.760;2023-06-14T00:00:22;23.16;70.87
75705;DHT22;70013;44.726;37.760;2023-06-14T00:01:23;23.16;70.33
75705;DHT22;70013;44.726;37.760;2023-06-14T00:02:24;23.15;70.08
75705;DHT22;70013;44.726;37.760;2023-06-14T00:03:25;23.18;70.22
75705;DHT22;70013;44.726;37.760;2023-06-14T00:04:26;23.18;71.26
75705;DHT22;70013;44.726;37.760;2023-06-14T00:05:28;23.16;70.96
75705;DHT22;70013;44.726;37.760;2023-06-14T00:06:30;23.16;69.97
75705;DHT22;70013;44.726;37.760;2023-06-14T00:07:35;23.17;70.11
75705;DHT22;70013;44.726;37.760;2023-06-14T00:08:36;23.18;70.61
75705;DHT22;70013;44.726;37.760;2023-06-14T00:09:38;23.20;70.43
75705;DHT22;70013;44.726;37.760;2023-06-14T00:10:40;23.20;70.58
75705;DHT22;70013;44.726;37.760;2023-06-14T00:11:42;23.21;70.51
75705;DHT22;70013;44.726;37.760;2023-06-14T00:12:44;23.20;70.76
75705;DHT22;70013;44.726;37.760;2023-06-14T00:13:45;23.21;70.74
75705;DHT22;70013;44.726;37.760;2023-06-14T00:14:47;23.20;70.52
75705;DHT22;70013;44.726;37.760;2023-06-14T00:15:48;23.21;69.59
75705;DHT22;70013;44.726;37.760;2023-06-14T00:16:49;23.22;70.04
75705;DHT22;70013;44.726;37.760;2023-06-14T00:17:50;23.18;70.71
75705;DHT22;70013;44.726;37.760;2023-06-14T00:18:51;23.20;70.35
75705;DHT22;70013;44.726;37.760;2023-06-14T00:19:53;23.20;69.98
75705;DHT22;70013;44.726;37.760;2023-06-14T00:20:55;23.21;70.29
75705;DHT22;70013;44.726;37.760;2023-06-14T00:21:56;23.20;70.34
75705;DHT22;70013;44.726;37.760;2023-06-14T00:22:58;23.22;70.16
75705;DHT22;70013;44.726;37.760;2023-06-14T00:24:00;23.20;69.87
75705;DHT22;70013;44.726;37.760;2023-06-14T00:25:01;23.17;70.22
75705;DHT22;70013;44.726;37.760;2023-06-14T00:26:03;23.15;70.16
75705;DHT22;70013;44.726;37.760;2023-06-14T00:27:04;23.14;70.77
75705;DHT22;70013;44.726;37.760;2023-06-14T00:28:06;23.10;71.34
75705;DHT22;70013;44.726;37.760;2023-06-14T00:29:07;23.08;71.01
75705;DHT22;70013;44.726;37.760;2023-06-14T00:30:08;23.05;71.04
75705;DHT22;70013;44.726;37.760;2023-06-14T00:31:10;23.01;71.02
75705;DHT22;70013;44.726;37.760;2023-06-14T00:32:11;22.99;70.87
75705;DHT22;70013;44.726;37.760;2023-06-14T00:33:12;22.98;70.69
75705;DHT22;70013;44.726;37.760;2023-06-14T00:34:13;22.96;70.32
75705;DHT22;70013;44.726;37.760;2023-06-14T00:35:16;22.96;70.93
75705;DHT22;70013;44.726;37.760;2023-06-14T00:36:18;22.96;70.98
75705;DHT22;70013;44.726;37.760;2023-06-14T00:37:19;22.96;71.09
75705;DHT22;70013;44.726;37.760;2023-06-14T00:38:20;22.95;70.73
75705;DHT22;70013;44.726;37.760;2023-06-14T00:39:21;22.96;70.55
75705;DHT22;70013;44.726;37.760;2023-06-14T00:40:23;22.95;70.42
75705;DHT22;70013;44.726;37.760;2023-06-14T00:41:24;22.94;71.35
75705;DHT22;70013;44.726;37.760;2023-06-14T00:42:26;22.92;70.99
75705;DHT22;70013;44.726;37.760;2023-06-14T00:43:27;22.90;70.97
75705;DHT22;70013;44.726;37.760;2023-06-14T00:44:28;22.90;70.89
75705;DHT22;70013;44.726;37.760;2023-06-14T00:45:30;22.87;71.23
75705;DHT22;70013;44.726;37.760;2023-06-14T00:46:32;22.87;71.28
75705;DHT22;70013;44.726;37.760;2023-06-14T00:47:33;22.84;71.71
75705;DHT22;70013;44.726;37.760;2023-06-14T00:48:36;22.83;70.99
75705;DHT22;70013;44.726;37.760;2023-06-14T00:49:38;22.83;71.34
75705;DHT22;70013;44.726;37.760;2023-06-14T00:50:39;22.81;71.64
75705;DHT22;70013;44.726;37.760;2023-06-14T00:51:41;22.78;71.64
75705;DHT22;70013;44.726;37.760;2023-06-14T00:52:43;22.77;71.48
75705;DHT22;70013;44.726;37.760;2023-06-14T00:53:44;22.76;71.93
75705;DHT22;70013;44.726;37.760;2023-06-14T00:54:47;22.76;71.67
75705;DHT22;70013;44.726;37.760;2023-06-14T00:55:49;22.72;71.81
75705;DHT22;70013;44.726;37.760;2023-06-14T00:56:51;22.72;71.95
75705;DHT22;70013;44.726;37.760;2023-06-14T00:57:54;22.68;72.16
75705;DHT22;70013;44.726;37.760;2023-06-14T00:58:56;22.67;72.05
75705;DHT22;70013;44.726;37.760;2023-06-14T00:59:57;22.64;71.97
75705;DHT22;70013;44.726;37.760;2023-06-14T01:00:58;22.64;71.54
75705;DHT22;70013;44.726;37.760;2023-06-14T01:02:00;22.64;71.92
75705;DHT22;70013;44.726;37.760;2023-06-14T01:03:01;22.63;72.18
75705;DHT22;70013;44.726;37.760;2023-06-14T01:04:03;22.62;72.06
75705;DHT22;70013;44.726;37.760;2023-06-14T01:05:06;22.60;72.30
75705;DHT22;70013;44.726;37.760;2023-06-14T01:08:54;22.52;72.42
75705;DHT22;70013;44.726;37.760;2023-06-14T01:11:21;22.52;72.55
75705;DHT22;70013;44.726;37.760;2023-06-14T01:13:29;22.50;73.04
75705;DHT22;70013;44.726;37.760;2023-06-14T01:14:31;22.49;72.77
75705;DHT22;70013;44.726;37.760;2023-06-14T01:15:34;22.50;72.63
75705;DHT22;70013;44.726;37.760;2023-06-14T01:16:36;22.49;73.06
75705;DHT22;70013;44.726;37.760;2023-06-14T01:17:40;22.47;72.98
75705;DHT22;70013;44.726;37.760;2023-06-14T01:18:44;22.44;72.93
75705;DHT22;70013;44.726;37.760;2023-06-14T01:19:50;22.43;73.09
75705;DHT22;70013;44.726;37.760;2023-06-14T01:20:58;22.42;72.84
75705;DHT22;70013;44.726;37.760;2023-06-14T01:22:00;22.43;73.07
75705;DHT22;70013;44.726;37.760;2023-06-14T01:23:02;22.43;72.82
75705;DHT22;70013;44.726;37.760;2023-06-14T01:24:05;22.41;73.72
75705;DHT22;70013;44.726;37.760;2023-06-14T01:25:06;22.41;73.35
75705;DHT22;70013;44.726;37.760;2023-06-14T01:26:08;22.40;73.32
75705;DHT22;70013;44.726;37.760;2023-06-14T01:27:09;22.39;73.57
75705;DHT22;70013;44.726;37.760;2023-06-14T01:28:10;22.41;73.24
75705;DHT22;70013;44.726;37.760;2023-06-14T01:29:13;22.41;73.26
75705;DHT22;70013;44.726;37.760;2023-06-14T01:30:20;22.42;73.10
75705;DHT22;70013;44.726;37.760;2023-06-14T01:31:22;22.44;72.87
75705;DHT22;70013;44.726;37.760;2023-06-14T01:32:24;22.46;73.45
75705;DHT22;70013;44.726;37.760;2023-06-14T01:33:27;22.42;73.13
75705;DHT22;70013;44.726;37.760;2023-06-14T01:34:32;22.46;72.97
75705;DHT22;70013;44.726;37.760;2023-06-14T01:35:33;22.48;73.24
75705;DHT22;70013;44.726;37.760;2023-06-14T01:36:37;22.48;72.92
75705;DHT22;70013;44.726;37.760;2023-06-14T01:37:40;22.51;72.48
75705;DHT22;70013;44.726;37.760;2023-06-14T01:38:42;22.53;72.42
75705;DHT22;70013;44.726;37.760;2023-06-14T01:39:45;22.56;72.63
75705;DHT22;70013;44.726;37.760;2023-06-14T01:40:46;22.56;72.88
75705;DHT22;70013;44.726;37.760;2023-06-14T01:41:49;22.58;72.47
75705;DHT22;70013;44.726;37.760;2023-06-14T01:42:51;22.60;72.16
75705;DHT22;70013;44.726;37.760;2023-06-14T01:43:52;22.61;72.48
75705;DHT22;70013;44.726;37.760;2023-06-14T01:44:54;22.63;72.52
75705;DHT22;70013;44.726;37.760;2023-06-14T01:45:56;22.62;72.60
75705;DHT22;70013;44.726;37.760;2023-06-14T01:46:57;22.64;72.13
75705;DHT22;70013;44.726;37.760;2023-06-14T01:47:59;22.65;71.67
75705;DHT22;70013;44.726;37.760;2023-06-14T01:49:01;22.66;72.07
75705;DHT22;70013;44.726;37.760;2023-06-14T01:50:03;22.65;71.80
75705;DHT22;70013;44.726;37.760;2023-06-14T01:51:05;22.67;72.32
75705;DHT22;70013;44.726;37.760;2023-06-14T01:52:06;22.68;72.46
75705;DHT22;70013;44.726;37.760;2023-06-14T01:53:10;22.66;72.64
75705;DHT22;70013;44.726;37.760;2023-06-14T01:54:12;22.67;72.51
75705;DHT22;70013;44.726;37.760;2023-06-14T01:55:13;22.66;72.41
75705;DHT22;70013;44.726;37.760;2023-06-14T01:56:14;22.67;72.07
75705;DHT22;70013;44.726;37.760;2023-06-14T01:57:16;22.65;73.03
75705;DHT22;70013;44.726;37.760;2023-06-14T01:58:17;22.65;72.61
75705;DHT22;70013;44.726;37.760;2023-06-14T01:59:18;22.66;72.61
75705;DHT22;70013;44.726;37.760;2023-06-14T02:00:20;22.66;72.58
75705;DHT22;70013;44.726;37.760;2023-06-14T02:01:22;22.65;72.65
75705;DHT22;70013;44.726;37.760;2023-06-14T02:02:24;22.65;72.05
75705;DHT22;70013;44.726;37.760;2023-06-14T02:03:25;22.67;72.49
75705;DHT22;70013;44.726;37.760;2023-06-14T02:04:27;22.66;72.22
75705;DHT22;70013;44.726;37.760;2023-06-14T02:05:28;22.66;72.29
75705;DHT22;70013;44.726;37.760;2023-06-14T02:06:29;22.67;72.62
75705;DHT22;70013;44.726;37.760;2023-06-14T02:07:30;22.67;72.41
75705;DHT22;70013;44.726;37.760;2023-06-14T02:08:32;22.66;72.43
75705;DHT22;70013;44.726;37.760;2023-06-14T02:09:35;22.66;72.52
75705;DHT22;70013;44.726;37.760;2023-06-14T02:10:36;22.67;71.97
75705;DHT22;70013;44.726;37.760;2023-06-14T02:11:37;22.68;72.51
75705;DHT22;70013;44.726;37.760;2023-06-14T02:12:38;22.71;71.71
75705;DHT22;70013;44.726;37.760;2023-06-14T02:13:40;22.71;71.80
75705;DHT22;70013;44.726;37.760;2023-06-14T02:14:41;22.72;72.18
75705;DHT22;70013;44.726;37.760;2023-06-14T02:15:42;22.73;71.92
75705;DHT22;70013;44.726;37.760;2023-06-14T02:16:44;22.73;72.03
75705;DHT22;70013;44.726;37.760;2023-06-14T02:17:49;22.75;72.03
75705;DHT22;70013;44.726;37.760;2023-06-14T02:18:51;22.75;71.81
75705;DHT22;70013;44.726;37.760;2023-06-14T02:19:53;22.76;71.80
75705;DHT22;70013;44.726;37.760;2023-06-14T02:20:54;22.79;71.51
75705;DHT22;70013;44.726;37.760;2023-06-14T02:21:55;22.81;71.74
75705;DHT22;70013;44.726;37.760;2023-06-14T02:22:57;22.82;71.80
75705;DHT22;70013;44.726;37.760;2023-06-14T02:23:58;22.82;71.51
75705;DHT22;70013;44.726;37.760;2023-06-14T02:24:59;22.83;71.77
75705;DHT22;70013;44.726;37.760;2023-06-14T02:26:00;22.85;71.90
75705;DHT22;70013;44.726;37.760;2023-06-14T02:27:02;22.85;71.61
75705;DHT22;70013;44.726;37.760;2023-06-14T02:28:03;22.88;71.48
75705;DHT22;70013;44.726;37.760;2023-06-14T02:29:05;22.90;71.92
75705;DHT22;70013;44.726;37.760;2023-06-14T02:30:10;22.90;71.54
75705;DHT22;70013;44.726;37.760;2023-06-14T02:31:12;22.92;70.94
75705;DHT22;70013;44.726;37.760;2023-06-14T02:32:13;22.92;71.26
75705;DHT22;70013;44.726;37.760;2023-06-14T02:33:14;22.93;71.53
75705;DHT22;70013;44.726;37.760;2023-06-14T02:34:15;22.91;71.54
75705;DHT22;70013;44.726;37.760;2023-06-14T02:35:21;22.92;71.03
75705;DHT22;70013;44.726;37.760;2023-06-14T02:36:25;22.92;70.93
75705;DHT22;70013;44.726;37.760;2023-06-14T02:37:27;22.94;71.07
75705;DHT22;70013;44.726;37.760;2023-06-14T02:38:28;22.95;71.10
75705;DHT22;70013;44.726;37.760;2023-06-14T02:39:29;22.97;71.22
75705;DHT22;70013;44.726;37.760;2023-06-14T02:40:30;22.96;71.36
75705;DHT22;70013;44.726;37.760;2023-06-14T02:41:31;22.96;71.34
75705;DHT22;70013;44.726;37.760;2023-06-14T02:42:33;22.95;71.00
75705;DHT22;70013;44.726;37.760;2023-06-14T02:43:34;22.97;71.19
75705;DHT22;70013;44.726;37.760;2023-06-14T02:44:35;22.95;71.42
75705;DHT22;70013;44.726;37.760;2023-06-14T02:45:37;22.93;71.64
75705;DHT22;70013;44.726;37.760;2023-06-14T02:46:38;22.94;71.49
75705;DHT22;70013;44.726;37.760;2023-06-14T02:47:40;22.94;71.22
75705;DHT22;70013;44.726;37.760;2023-06-14T02:48:41;22.94;71.50
75705;DHT22;70013;44.726;37.760;2023-06-14T02:49:44;22.93;71.64
75705;DHT22;70013;44.726;37.760;2023-06-14T02:50:49;22.90;71.64
75705;DHT22;70013;44.726;37.760;2023-06-14T02:51:51;22.92;71.79
75705;DHT22;70013;44.726;37.760;2023-06-14T02:52:52;22.90;72.09
75705;DHT22;70013;44.726;37.760;2023-06-14T02:53:54;22.90;71.45
75705;DHT22;70013;44.726;37.760;2023-06-14T02:54:55;22.94;71.58
75705;DHT22;70013;44.726;37.760;2023-06-14T02:55:57;22.96;71.27
75705;DHT22;70013;44.726;37.760;2023-06-14T02:56:59;22.98;71.55
75705;DHT22;70013;44.726;37.760;2023-06-14T02:58:00;23.00;71.37
75705;DHT22;70013;44.726;37.760;2023-06-14T02:59:02;23.03;71.56
75705;DHT22;70013;44.726;37.760;2023-06-14T03:00:03;23.02;71.55
75705;DHT22;70013;44.726;37.760;2023-06-14T03:01:07;23.09;71.17
75705;DHT22;70013;44.726;37.760;2023-06-14T03:02:09;23.12;71.35
75705;DHT22;70013;44.726;37.760;2023-06-14T03:03:11;23.15;71.05
75705;DHT22;70013;44.726;37.760;2023-06-14T03:04:23;23.20;70.44
75705;DHT22;70013;44.726;37.760;2023-06-14T03:05:27;23.26;70.78
75705;DHT22;70013;44.726;37.760;2023-06-14T03:06:29;23.29;70.54
75705;DHT22;70013;44.726;37.760;2023-06-14T03:07:32;23.34;70.58
75705;DHT22;70013;44.726;37.760;2023-06-14T03:08:34;23.39;69.97
75705;DHT22;70013;44.726;37.760;2023-06-14T03:09:44;23.45;70.32
75705;DHT22;70013;44.726;37.760;2023-06-14T03:10:46;23.47;71.51
75705;DHT22;70013;44.726;37.760;2023-06-14T03:11:48;23.50;70.71
75705;DHT22;70013;44.726;37.760;2023-06-14T03:12:49;23.56;69.78
75705;DHT22;70013;44.726;37.760;2023-06-14T03:13:56;23.62;69.69
75705;DHT22;70013;44.726;37.760;2023-06-14T03:14:59;23.66;70.39
75705;DHT22;70013;44.726;37.760;2023-06-14T03:16:09;23.69;69.52
75705;DHT22;70013;44.726;37.760;2023-06-14T03:17:14;23.72;69.55
75705;DHT22;70013;44.726;37.760;2023-06-14T03:18:16;23.76;69.17
75705;DHT22;70013;44.726;37.760;2023-06-14T03:19:17;23.77;69.52
75705;DHT22;70013;44.726;37.760;2023-06-14T03:20:18;23.82;69.35
75705;DHT22;70013;44.726;37.760;2023-06-14T03:21:21;23.87;69.14
75705;DHT22;70013;44.726;37.760;2023-06-14T03:22:24;23.95;69.11
75705;DHT22;70013;44.726;37.760;2023-06-14T03:23:27;24.00;68.97
75705;DHT22;70013;44.726;37.760;2023-06-14T03:24:28;24.03;69.03
75705;DHT22;70013;44.726;37.760;2023-06-14T03:25:31;24.08;68.95
75705;DHT22;70013;44.726;37.760;2023-06-14T03:26:34;24.12;68.71
75705;DHT22;70013;44.726;37.760;2023-06-14T03:27:35;24.13;68.66
75705;DHT22;70013;44.726;37.760;2023-06-14T03:28:37;24.15;67.94
75705;DHT22;70013;44.726;37.760;2023-06-14T03:29:38;24.17;68.04
75705;DHT22;70013;44.726;37.760;2023-06-14T03:30:39;24.21;67.39
75705;DHT22;70013;44.726;37.760;2023-06-14T03:31:55;24.19;67.55
75705;DHT22;70013;44.726;37.760;2023-06-14T03:32:57;24.21;67.68
75705;DHT22;70013;44.726;37.760;2023-06-14T03:34:02;24.24;67.16
75705;DHT22;70013;44.726;37.760;2023-06-14T03:35:04;24.28;67.04
75705;DHT22;70013;44.726;37.760;2023-06-14T03:36:06;24.23;68.06
75705;DHT22;70013;44.726;37.760;2023-06-14T03:37:10;24.24;68.66
75705;DHT22;70013;44.726;37.760;2023-06-14T03:38:11;24.25;69.56
75705;DHT22;70013;44.726;37.760;2023-06-14T03:39:12;24.28;69.37
75705;DHT22;70013;44.726;37.760;2023-06-14T03:40:15;24.32;69.59
75705;DHT22;70013;44.726;37.760;2023-06-14T03:41:19;24.41;69.50
75705;DHT22;70013;44.726;37.760;2023-06-14T03:42:20;24.47;69.48
75705;DHT22;70013;44.726;37.760;2023-06-14T03:43:22;24.61;68.52
75705;DHT22;70013;44.726;37.760;2023-06-14T03:44:24;24.73;67.30
75705;DHT22;70013;44.726;37.760;2023-06-14T03:45:27;24.87;66.69
75705;DHT22;70013;44.726;37.760;2023-06-14T03:46:29;24.98;66.56
75705;DHT22;70013;44.726;37.760;2023-06-14T03:47:31;25.03;65.78
75705;DHT22;70013;44.726;37.760;2023-06-14T03:48:32;25.09;66.55
75705;DHT22;70013;44.726;37.760;2023-06-14T03:49:33;25.13;65.73
75705;DHT22;70013;44.726;37.760;2023-06-14T03:50:35;25.17;65.14
75705;DHT22;70013;44.726;37.760;2023-06-14T03:51:39;25.21;64.88
75705;DHT22;70013;44.726;37.760;2023-06-14T03:52:40;25.28;64.87
75705;DHT22;70013;44.726;37.760;2023-06-14T03:53:44;25.34;64.88
75705;DHT22;70013;44.726;37.760;2023-06-14T03:54:46;25.42;64.40
75705;DHT22;70013;44.726;37.760;2023-06-14T03:55:48;25.50;63.66
75705;DHT22;70013;44.726;37.760;2023-06-14T03:56:50;25.58;63.33
75705;DHT22;70013;44.726;37.760;2023-06-14T03:57:51;25.68;63.66
75705;DHT22;70013;44.726;37.760;2023-06-14T03:58:52;25.71;63.93
75705;DHT22;70013;44.726;37.760;2023-06-14T03:59:57;25.72;63.64
75705;DHT22;70013;44.726;37.760;2023-06-14T04:00:58;25.72;63.56
75705;DHT22;70013;44.726;37.760;2023-06-14T04:02:00;25.69;63.42
75705;DHT22;70013;44.726;37.760;2023-06-14T04:03:01;25.74;63.60
75705;DHT22;70013;44.726;37.760;2023-06-14T04:04:04;25.83;63.54
75705;DHT22;70013;44.726;37.760;2023-06-14T04:05:05;25.88;63.18
75705;DHT22;70013;44.726;37.760;2023-06-14T04:06:10;25.95;63.33
75705;DHT22;70013;44.726;37.760;2023-06-14T04:07:12;26.05;62.77
75705;DHT22;70013;44.726;37.760;2023-06-14T04:08:13;26.13;62.28
75705;DHT22;70013;44.726;37.760;2023-06-14T04:09:15;26.18;62.54
75705;DHT22;70013;44.726;37.760;2023-06-14T04:10:17;26.25;62.39
75705;DHT22;70013;44.726;37.760;2023-06-14T04:11:19;26.26;62.26
75705;DHT22;70013;44.726;37.760;2023-06-14T04:12:21;26.38;61.57
75705;DHT22;70013;44.726;37.760;2023-06-14T04:13:22;26.46;61.72
75705;DHT22;70013;44.726;37.760;2023-06-14T04:14:23;26.56;61.63
75705;DHT22;70013;44.726;37.760;2023-06-14T04:15:24;26.67;60.86
75705;DHT22;70013;44.726;37.760;2023-06-14T04:16:27;26.93;61.14
75705;DHT22;70013;44.726;37.760;2023-06-14T04:17:28;27.14;60.22
75705;DHT22;70013;44.726;37.760;2023-06-14T04:18:30;27.27;59.16
75705;DHT22;70013;44.726;37.760;2023-06-14T04:19:31;27.35;58.99
75705;DHT22;70013;44.726;37.760;2023-06-14T04:20:33;27.38;58.70
75705;DHT22;70013;44.726;37.760;2023-06-14T04:21:34;27.43;58.00
75705;DHT22;70013;44.726;37.760;2023-06-14T04:22:38;27.56;57.56
75705;DHT22;70013;44.726;37.760;2023-06-14T04:23:40;27.64;57.90
75705;DHT22;70013;44.726;37.760;2023-06-14T04:24:45;27.63;57.48
75705;DHT22;70013;44.726;37.760;2023-06-14T04:25:47;27.58;57.93
75705;DHT22;70013;44.726;37.760;2023-06-14T04:26:48;27.55;58.03
75705;DHT22;70013;44.726;37.760;2023-06-14T04:27:52;27.58;57.77
75705;DHT22;70013;44.726;37.760;2023-06-14T04:28:54;27.55;57.52
75705;DHT22;70013;44.726;37.760;2023-06-14T04:29:58;27.59;57.85
75705;DHT22;70013;44.726;37.760;2023-06-14T04:31:07;27.64;57.93
75705;DHT22;70013;44.726;37.760;2023-06-14T04:32:10;27.63;57.81
75705;DHT22;70013;44.726;37.760;2023-06-14T04:33:14;27.60;58.50
75705;DHT22;70013;44.726;37.760;2023-06-14T04:34:15;27.55;58.03
75705;DHT22;70013;44.726;37.760;2023-06-14T04:35:22;27.51;57.99
75705;DHT22;70013;44.726;37.760;2023-06-14T04:36:29;27.50;58.03
75705;DHT22;70013;44.726;37.760;2023-06-14T04:37:32;27.47;58.03
75705;DHT22;70013;44.726;37.760;2023-06-14T04:38:34;27.41;58.56
75705;DHT22;70013;44.726;37.760;2023-06-14T04:39:35;27.31;58.90
75705;DHT22;70013;44.726;37.760;2023-06-14T04:40:37;27.27;58.40
75705;DHT22;70013;44.726;37.760;2023-06-14T04:41:44;27.23;58.56
75705;DHT22;70013;44.726;37.760;2023-06-14T04:42:46;27.16;59.11
75705;DHT22;70013;44.726;37.760;2023-06-14T04:43:49;27.06;59.73
75705;DHT22;70013;44.726;37.760;2023-06-14T04:44:52;27.00;60.23
75705;DHT22;70013;44.726;37.760;2023-06-14T04:45:57;26.93;60.29
75705;DHT22;70013;44.726;37.760;2023-06-14T04:47:00;26.89;60.76
75705;DHT22;70013;44.726;37.760;2023-06-14T04:48:01;26.91;61.02
75705;DHT22;70013;44.726;37.760;2023-06-14T04:49:02;26.85;61.40
75705;DHT22;70013;44.726;37.760;2023-06-14T04:50:04;26.83;61.36
75705;DHT22;70013;44.726;37.760;2023-06-14T04:51:09;26.82;60.60
75705;DHT22;70013;44.726;37.760;2023-06-14T04:52:10;26.85;60.38
75705;DHT22;70013;44.726;37.760;2023-06-14T04:53:15;26.82;60.70
75705;DHT22;70013;44.726;37.760;2023-06-14T04:54:17;26.82;60.93
75705;DHT22;70013;44.726;37.760;2023-06-14T04:55:21;26.80;61.60
75705;DHT22;70013;44.726;37.760;2023-06-14T04:56:22;26.82;61.38
75705;DHT22;70013;44.726;37.760;2023-06-14T04:57:24;26.87;61.37
75705;DHT22;70013;44.726;37.760;2023-06-14T04:58:29;26.97;60.99
75705;DHT22;70013;44.726;37.760;2023-06-14T04:59:30;27.04;60.51
75705;DHT22;70013;44.726;37.760;2023-06-14T05:00:34;27.13;60.15
75705;DHT22;70013;44.726;37.760;2023-06-14T05:01:35;27.24;60.55
75705;DHT22;70013;44.726;37.760;2023-06-14T05:02:38;27.46;60.35
75705;DHT22;70013;44.726;37.760;2023-06-14T05:03:41;27.75;58.67
75705;DHT22;70013;44.726;37.760;2023-06-14T05:04:45;27.98;57.58
75705;DHT22;70013;44.726;37.760;2023-06-14T05:05:48;28.28;57.15
75705;DHT22;70013;44.726;37.760;2023-06-14T05:06:49;28.75;56.00
75705;DHT22;70013;44.726;37.760;2023-06-14T05:07:50;29.16;54.80
75705;DHT22;70013;44.726;37.760;2023-06-14T05:08:52;29.64;54.07
75705;DHT22;70013;44.726;37.760;2023-06-14T05:09:53;30.08;52.82
75705;DHT22;70013;44.726;37.760;2023-06-14T05:10:55;30.52;51.39
75705;DHT22;70013;44.726;37.760;2023-06-14T05:11:56;31.01;50.61
75705;DHT22;70013;44.726;37.760;2023-06-14T05:12:59;31.59;49.75
75705;DHT22;70013;44.726;37.760;2023-06-14T05:14:01;31.92;47.54
75705;DHT22;70013;44.726;37.760;2023-06-14T05:15:02;32.22;46.93
75705;DHT22;70013;44.726;37.760;2023-06-14T05:16:04;32.34;46.23
75705;DHT22;70013;44.726;37.760;2023-06-14T05:17:05;32.47;44.96
75705;DHT22;70013;44.726;37.760;2023-06-14T05:18:07;32.63;45.34
75705;DHT22;70013;44.726;37.760;2023-06-14T05:19:09;33.04;44.99
75705;DHT22;70013;44.726;37.760;2023-06-14T05:20:11;33.43;43.81
75705;DHT22;70013;44.726;37.760;2023-06-14T05:21:12;33.83;43.11
75705;DHT22;70013;44.726;37.760;2023-06-14T05:22:13;33.91;43.10
75705;DHT22;70013;44.726;37.760;2023-06-14T05:23:14;33.83;42.51
75705;DHT22;70013;44.726;37.760;2023-06-14T05:24:17;33.79;42.19
75705;DHT22;70013;44.726;37.760;2023-06-14T05:25:19;33.68;43.48
75705;DHT22;70013;44.726;37.760;2023-06-14T05:26:21;33.57;42.97
75705;DHT22;70013;44.726;37.760;2023-06-14T05:27:24;33.44;43.06
75705;DHT22;70013;44.726;37.760;2023-06-14T05:28:26;33.46;42.58
75705;DHT22;70013;44.726;37.760;2023-06-14T05:29:27;33.75;41.81
75705;DHT22;70013;44.726;37.760;2023-06-14T05:30:28;33.94;41.16
75705;DHT22;70013;44.726;37.760;2023-06-14T05:31:31;34.21;40.91
75705;DHT22;70013;44.726;37.760;2023-06-14T05:32:33;34.52;40.07
75705;DHT22;70013;44.726;37.760;2023-06-14T05:33:34;34.88;38.78
75705;DHT22;70013;44.726;37.760;2023-06-14T05:34:36;35.15;38.33
75705;DHT22;70013;44.726;37.760;2023-06-14T05:35:37;35.39;38.10
75705;DHT22;70013;44.726;37.760;2023-06-14T05:36:38;35.82;36.65
75705;DHT22;70013;44.726;37.760;2023-06-14T05:37:40;36.08;37.50
75705;DHT22;70013;44.726;37.760;2023-06-14T05:38:41;36.36;35.18
75705;DHT22;70013;44.726;37.760;2023-06-14T05:39:42;36.78;34.66
75705;DHT22;70013;44.726;37.760;2023-06-14T05:40:46;37.16;34.95
75705;DHT22;70013;44.726;37.760;2023-06-14T05:41:48;37.56;33.07
75705;DHT22;70013;44.726;37.760;2023-06-14T05:42:49;37.95;32.83
75705;DHT22;70013;44.726;37.760;2023-06-14T05:43:51;38.15;31.77
75705;DHT22;70013;44.726;37.760;2023-06-14T05:44:52;38.52;30.83
75705;DHT22;70013;44.726;37.760;2023-06-14T05:45:54;38.84;31.11
75705;DHT22;70013;44.726;37.760;2023-06-14T05:46:55;38.99;30.17
75705;DHT22;70013;44.726;37.760;2023-06-14T05:47:58;39.43;29.48
75705;DHT22;70013;44.726;37.760;2023-06-14T05:48:59;39.65;28.58
75705;DHT22;70013;44.726;37.760;2023-06-14T05:50:00;39.91;27.57
75705;DHT22;70013;44.726;37.760;2023-06-14T05:51:01;40.01;28.06
75705;DHT22;70013;44.726;37.760;2023-06-14T05:52:03;40.33;26.46
75705;DHT22;70013;44.726;37.760;2023-06-14T05:53:05;40.73;27.33
75705;DHT22;70013;44.726;37.760;2023-06-14T05:54:06;40.98;26.35
75705;DHT22;70013;44.726;37.760;2023-06-14T05:55:08;41.04;27.07
75705;DHT22;70013;44.726;37.760;2023-06-14T05:56:13;41.46;24.85
75705;DHT22;70013;44.726;37.760;2023-06-14T05:57:14;41.60;25.15
75705;DHT22;70013;44.726;37.760;2023-06-14T05:58:15;41.37;24.57
75705;DHT22;70013;44.726;37.760;2023-06-14T05:59:17;41.02;24.47
75705;DHT22;70013;44.726;37.760;2023-06-14T06:00:18;40.68;25.30
75705;DHT22;70013;44.726;37.760;2023-06-14T06:01:20;40.31;26.14
75705;DHT22;70013;44.726;37.760;2023-06-14T06:02:22;39.93;26.44
75705;DHT22;70013;44.726;37.760;2023-06-14T06:03:23;39.50;27.20
75705;DHT22;70013;44.726;37.760;2023-06-14T06:04:24;39.67;27.68
75705;DHT22;70013;44.726;37.760;2023-06-14T06:05:26;39.35;27.67
75705;DHT22;70013;44.726;37.760;2023-06-14T06:06:28;39.22;27.91
75705;DHT22;70013;44.726;37.760;2023-06-14T06:07:29;38.89;28.39
75705;DHT22;70013;44.726;37.760;2023-06-14T06:08:32;38.47;29.00
75705;DHT22;70013;44.726;37.760;2023-06-14T06:09:34;38.19;29.13
75705;DHT22;70013;44.726;37.760;2023-06-14T06:10:35;37.51;30.52
75705;DHT22;70013;44.726;37.760;2023-06-14T06:11:36;37.66;30.64
75705;DHT22;70013;44.726;37.760;2023-06-14T06:12:38;37.94;30.77
75705;DHT22;70013;44.726;37.760;2023-06-14T06:13:39;38.44;29.61
75705;DHT22;70013;44.726;37.760;2023-06-14T06:14:41;38.83;28.91
75705;DHT22;70013;44.726;37.760;2023-06-14T06:15:42;39.19;28.67
75705;DHT22;70013;44.726;37.760;2023-06-14T06:16:43;39.53;26.94
75705;DHT22;70013;44.726;37.760;2023-06-14T06:17:45;39.95;26.79
75705;DHT22;70013;44.726;37.760;2023-06-14T06:18:46;40.22;26.33
75705;DHT22;70013;44.726;37.760;2023-06-14T06:19:47;40.52;25.50
75705;DHT22;70013;44.726;37.760;2023-06-14T06:20:48;40.75;25.49
75705;DHT22;70013;44.726;37.760;2023-06-14T06:21:50;41.07;24.67
75705;DHT22;70013;44.726;37.760;2023-06-14T06:22:51;40.75;25.33
75705;DHT22;70013;44.726;37.760;2023-06-14T06:23:52;41.03;24.75
75705;DHT22;70013;44.726;37.760;2023-06-14T06:24:53;41.12;24.81
75705;DHT22;70013;44.726;37.760;2023-06-14T06:25:54;41.31;24.59
75705;DHT22;70013;44.726;37.760;2023-06-14T06:26:56;41.21;23.13
75705;DHT22;70013;44.726;37.760;2023-06-14T06:27:57;40.70;24.95
75705;DHT22;70013;44.726;37.760;2023-06-14T06:28:58;40.48;25.07
75705;DHT22;70013;44.726;37.760;2023-06-14T06:30:00;40.55;24.92
75705;DHT22;70013;44.726;37.760;2023-06-14T06:31:01;40.85;24.90